Time;durP1;ratioP1;P1;durP2;ratioP2;P2;SDS_P1;SDS_P2;PMS_P1;PMS_P2;Temp;Humidity;BMP_temperature;BMP_pressure;BME280_temperature;BME280_humidity;BME280_pressure;Samples;Min_cycle;Max_cycle;Signal;HPM_P1;HPM_P2
2023/06/07 00:01:08;;;;;;;12.07;8.80;;;;;;;;;;5010300;28;20046;-63
2023/06/07 00:03:36;;;;;;;16.52;8.50;;;;;;;;;;5010223;28;20507;-63
2023/06/07 00:06:03;;;;;;;11.35;7.75;;;;;;;;;;5009533;28;20501;-61
2023/06/07 00:08:30;;;;;;;12.65;8.48;;;;;;;;;;5011841;28;20060;-62
2023/06/07 00:10:56;;;;;;;14.02;8.45;;;;;;;;;;5010649;28;20113;-61
2023/06/07 00:13:23;;;;;;;13.40;8.73;;;;;;;;;;5008630;28;20041;-61
2023/06/07 00:15:49;;;;;;;12.25;9.00;;;;;;;;;;5009454;28;20499;-61
2023/06/07 00:18:16;;;;;;;12.93;8.63;;;;;;;;;;5005142;28;20121;-61
2023/06/07 00:20:45;;;;;;;11.63;8.73;;;;;;;;;;5008872;28;20522;-61
2023/06/07 00:23:15;;;;;;;12.27;9.10;;;;;;;;;;5009851;28;20033;-61
2023/06/07 00:25:41;;;;;;;13.25;8.13;;;;;;;;;;5002017;28;20104;-61
2023/06/07 00:28:08;;;;;;;12.95;8.88;;;;;;;;;;5003674;28;20041;-62
2023/06/07 00:30:34;;;;;;;12.93;9.00;;;;;;;;;;5009930;28;20064;-61
2023/06/07 00:33:00;;;;;;;14.02;9.80;;;;;;;;;;5008482;28;20038;-62
2023/06/07 00:35:26;;;;;;;17.02;9.27;;;;;;;;;;5022100;28;20033;-62
2023/06/07 00:37:52;;;;;;;16.35;9.68;;;;;;;;;;5007833;28;20045;-61
2023/06/07 00:40:18;;;;;;;14.98;8.52;;;;;;;;;;5007784;28;20037;-61
2023/06/07 00:42:44;;;;;;;15.02;8.80;;;;;;;;;;5007601;28;20561;-61
2023/06/07 00:45:11;;;;;;;11.55;8.23;;;;;;;;;;5007959;28;20045;-62
2023/06/07 00:47:38;;;;;;;13.55;9.60;;;;;;;;;;5013335;28;20042;-61
2023/06/07 00:50:06;;;;;;;14.90;9.98;;;;;;;;;;5015526;28;20046;-61
2023/06/07 00:52:34;;;;;;;13.07;8.80;;;;;;;;;;5007893;28;20042;-61
2023/06/07 00:55:02;;;;;;;14.43;8.75;;;;;;;;;;5007413;28;20495;-61
2023/06/07 00:57:29;;;;;;;12.07;8.48;;;;;;;;;;5007478;28;20523;-61
2023/06/07 00:59:56;;;;;;;11.05;8.32;;;;;;;;;;5010274;28;20061;-61
2023/06/07 01:02:22;;;;;;;13.98;9.45;;;;;;;;;;5037293;28;20499;-62
2023/06/07 01:04:51;;;;;;;15.00;9.52;;;;;;;;;;5007043;28;20499;-62
2023/06/07 01:07:17;;;;;;;13.02;8.20;;;;;;;;;;5008250;28;20673;-61
2023/06/07 01:09:43;;;;;;;17.45;9.77;;;;;;;;;;5010479;28;20033;-61
2023/06/07 01:12:15;;;;;;;13.68;9.07;;;;;;;;;;5013263;28;20052;-61
2023/06/07 01:14:42;;;;;;;15.00;9.15;;;;;;;;;;5013969;28;20043;-61
2023/06/07 01:17:08;;;;;;;14.85;9.00;;;;;;;;;;5008827;28;20054;-60
2023/06/07 01:19:36;;;;;;;16.52;9.35;;;;;;;;;;5011262;28;20065;-61
2023/06/07 01:22:06;;;;;;;13.77;8.88;;;;;;;;;;5012385;28;20046;-61
2023/06/07 01:24:35;;;;;;;14.40;8.98;;;;;;;;;;5012177;28;20057;-60
2023/06/07 01:27:04;;;;;;;12.20;8.50;;;;;;;;;;5011469;28;20034;-61
2023/06/07 01:29:30;;;;;;;13.15;9.25;;;;;;;;;;5011283;28;20392;-60
2023/06/07 01:31:59;;;;;;;15.48;9.43;;;;;;;;;;5009064;28;20038;-61
2023/06/07 01:34:26;;;;;;;12.63;8.88;;;;;;;;;;5012625;28;20050;-61
2023/06/07 01:36:54;;;;;;;13.73;9.35;;;;;;;;;;5011355;28;20053;-60
2023/06/07 01:39:23;;;;;;;15.02;9.90;;;;;;;;;;4992865;28;20045;-60
2023/06/07 01:41:51;;;;;;;14.77;9.32;;;;;;;;;;5013282;28;20046;-61
2023/06/07 01:44:18;;;;;;;13.85;9.07;;;;;;;;;;5025489;28;20041;-60
2023/06/07 01:46:46;;;;;;;12.75;8.75;;;;;;;;;;5009717;28;20034;-61
2023/06/07 01:49:13;;;;;;;13.30;9.18;;;;;;;;;;5010873;28;20046;-60
2023/06/07 01:51:39;;;;;;;18.27;10.35;;;;;;;;;;5012730;28;20029;-61
2023/06/07 01:54:06;;;;;;;17.25;9.63;;;;;;;;;;5018870;28;20060;-61
2023/06/07 01:56:44;;;;;;;15.70;9.43;;;;;;;;;;5011619;28;20403;-61
2023/06/07 01:59:44;;;;;;;13.52;9.27;;;;;;;;;;5011315;28;20038;-61
2023/06/07 02:02:19;;;;;;;19.02;9.95;;;;;;;;;;5010856;28;20051;-61
2023/06/07 02:04:50;;;;;;;14.27;9.55;;;;;;;;;;5013663;28;20519;-61
2023/06/07 02:07:24;;;;;;;17.90;9.45;;;;;;;;;;5012012;28;20037;-61
2023/06/07 02:09:51;;;;;;;14.82;9.05;;;;;;;;;;5045463;28;20422;-61
2023/06/07 02:12:19;;;;;;;17.75;9.57;;;;;;;;;;5014786;28;20045;-62
2023/06/07 02:14:52;;;;;;;15.82;9.38;;;;;;;;;;5012135;28;20045;-62
2023/06/07 02:17:21;;;;;;;14.63;9.25;;;;;;;;;;5009216;28;20038;-61
2023/06/07 02:19:47;;;;;;;13.25;9.13;;;;;;;;;;5015181;28;20680;-61
2023/06/07 02:22:16;;;;;;;14.32;9.73;;;;;;;;;;5010803;28;20041;-61
2023/06/07 02:24:43;;;;;;;14.00;9.57;;;;;;;;;;5011862;28;20053;-61
2023/06/07 02:27:09;;;;;;;14.82;9.00;;;;;;;;;;5013015;28;20041;-61
2023/06/07 02:29:35;;;;;;;18.30;9.73;;;;;;;;;;5013722;28;20418;-62
2023/06/07 02:32:01;;;;;;;14.30;9.25;;;;;;;;;;5014836;28;20426;-62
2023/06/07 02:34:29;;;;;;;18.05;10.70;;;;;;;;;;5018876;28;20045;-61
2023/06/07 02:36:57;;;;;;;14.57;9.43;;;;;;;;;;5007367;28;20038;-61
2023/06/07 02:39:23;;;;;;;13.23;9.15;;;;;;;;;;5008688;28;20038;-62
2023/06/07 02:41:49;;;;;;;13.90;9.75;;;;;;;;;;5006983;28;20620;-60
2023/06/07 02:44:16;;;;;;;14.20;9.32;;;;;;;;;;5007149;28;20656;-62
2023/06/07 02:46:42;;;;;;;15.45;9.35;;;;;;;;;;5008222;28;20034;-61
2023/06/07 02:49:09;;;;;;;15.00;9.75;;;;;;;;;;5006010;28;20049;-61
2023/06/07 02:51:37;;;;;;;15.50;9.70;;;;;;;;;;5008891;28;20403;-61
2023/06/07 02:54:08;;;;;;;17.83;10.00;;;;;;;;;;4994425;28;20041;-61
2023/06/07 02:56:35;;;;;;;13.60;9.35;;;;;;;;;;4996402;28;20046;-61
2023/06/07 02:59:02;;;;;;;13.60;9.57;;;;;;;;;;5010436;28;20037;-61
2023/06/07 03:01:33;;;;;;;;;;;;;;;;;;5010400;28;20542;-62
2023/06/07 03:03:59;;;;;;;16.55;11.80;;;;;;;;;;5005821;28;19928;-62
2023/06/07 03:06:29;;;;;;;18.85;11.35;;;;;;;;;;5010444;28;20032;-61
2023/06/07 03:08:56;;;;;;;18.50;11.07;;;;;;;;;;5008307;28;20412;-61
2023/06/07 03:11:25;;;;;;;15.48;10.02;;;;;;;;;;5010112;28;20034;-61
2023/06/07 03:13:51;;;;;;;17.17;10.38;;;;;;;;;;5011192;28;20030;-61
2023/06/07 03:16:24;;;;;;;16.85;10.35;;;;;;;;;;5012639;28;20053;-60
2023/06/07 03:18:55;;;;;;;17.70;11.32;;;;;;;;;;5007402;28;20034;-61
2023/06/07 03:21:23;;;;;;;16.58;10.88;;;;;;;;;;5006331;28;20041;-61
2023/06/07 03:23:52;;;;;;;17.95;10.50;;;;;;;;;;5009670;28;20042;-61
2023/06/07 03:26:21;;;;;;;17.55;10.20;;;;;;;;;;5016690;28;20411;-61
2023/06/07 03:28:48;;;;;;;19.25;10.20;;;;;;;;;;5014669;28;20045;-61
2023/06/07 03:31:16;;;;;;;17.88;10.15;;;;;;;;;;5012967;28;20053;-62
2023/06/07 03:33:50;;;;;;;23.85;11.82;;;;;;;;;;5006810;28;20038;-61
2023/06/07 03:36:25;;;;;;;24.77;12.07;;;;;;;;;;5012431;28;20049;-62
2023/06/07 03:38:53;;;;;;;18.00;10.68;;;;;;;;;;5008064;28;20072;-62
2023/06/07 03:41:20;;;;;;;17.10;10.27;;;;;;;;;;5011884;28;20041;-62
2023/06/07 03:43:46;;;;;;;19.75;10.05;;;;;;;;;;5008874;28;20447;-61
2023/06/07 03:46:13;;;;;;;15.68;10.73;;;;;;;;;;5008211;28;20037;-62
2023/06/07 03:48:39;;;;;;;24.02;12.85;;;;;;;;;;5012698;28;20495;-61
2023/06/07 03:51:07;;;;;;;17.38;10.90;;;;;;;;;;5009952;28;20045;-62
2023/06/07 03:53:34;;;;;;;21.17;10.95;;;;;;;;;;5008767;28;20050;-62
2023/06/07 03:56:01;;;;;;;20.50;10.32;;;;;;;;;;5008188;28;20029;-62
2023/06/07 03:58:30;;;;;;;;;;;;;;;;;;5008029;28;20041;-62
2023/06/07 04:01:01;;;;;;;15.70;10.20;;;;;;;;;;5008010;28;20000;-62
2023/06/07 04:03:30;;;;;;;17.65;11.57;;;;;;;;;;5009275;28;20088;-62
2023/06/07 04:05:59;;;;;;;17.60;11.65;;;;;;;;;;5011418;28;20056;-62
2023/06/07 04:08:25;;;;;;;25.40;12.38;;;;;;;;;;5012885;28;20054;-62
2023/06/07 04:10:52;;;;;;;19.52;12.15;;;;;;;;;;5013648;28;20499;-62
2023/06/07 04:13:19;;;;;;;17.58;11.07;;;;;;;;;;5043469;28;20030;-63
2023/06/07 04:15:45;;;;;;;16.48;11.45;;;;;;;;;;5010323;28;20054;-62
2023/06/07 04:18:11;;;;;;;21.15;12.07;;;;;;;;;;5000617;28;20381;-62
2023/06/07 04:20:39;;;;;;;24.55;12.15;;;;;;;;;;5009047;28;20038;-63
2023/06/07 04:23:06;;;;;;;21.77;13.00;;;;;;;;;;5008433;28;20030;-62
2023/06/07 04:25:33;;;;;;;20.10;12.15;;;;;;;;;;5009390;28;20038;-61
2023/06/07 04:28:01;;;;;;;19.85;12.15;;;;;;;;;;5008288;28;20041;-61
2023/06/07 04:30:36;;;;;;;20.63;11.52;;;;;;;;;;5008998;28;20040;-63
2023/06/07 04:33:09;;;;;;;20.25;11.85;;;;;;;;;;5008761;28;20034;-60
2023/06/07 04:35:41;;;;;;;19.77;11.55;;;;;;;;;;5010006;28;20029;-62
2023/06/07 04:38:11;;;;;;;21.35;12.60;;;;;;;;;;5006854;28;20034;-62
2023/06/07 04:40:42;;;;;;;18.42;12.32;;;;;;;;;;5007014;28;20045;-63
2023/06/07 04:43:10;;;;;;;22.73;11.82;;;;;;;;;;5007755;28;20095;-62
2023/06/07 04:45:41;;;;;;;25.05;12.80;;;;;;;;;;5007344;28;20415;-62
2023/06/07 04:48:11;;;;;;;24.83;12.63;;;;;;;;;;5011231;28;20072;-63
2023/06/07 04:50:42;;;;;;;21.70;11.68;;;;;;;;;;5012070;28;20049;-61
2023/06/07 04:53:10;;;;;;;;;;;;;;;;;;5016105;28;20045;-61
2023/06/07 04:55:38;;;;;;;19.63;11.13;;;;;;;;;;5013140;28;19913;-62
2023/06/07 04:58:06;;;;;;;18.40;12.20;;;;;;;;;;5010403;28;20675;-61
2023/06/07 05:00:34;;;;;;;21.88;12.52;;;;;;;;;;5010189;28;20514;-62
2023/06/07 05:03:06;;;;;;;18.70;12.00;;;;;;;;;;5013072;28;20029;-62
2023/06/07 05:05:36;;;;;;;21.70;11.95;;;;;;;;;;5015297;28;20044;-61
2023/06/07 05:08:04;;;;;;;19.10;12.10;;;;;;;;;;5011973;28;20061;-60
2023/06/07 05:10:31;;;;;;;19.58;11.68;;;;;;;;;;5012817;28;20050;-59
2023/06/07 05:13:00;;;;;;;17.15;11.32;;;;;;;;;;5008471;28;20042;-60
2023/06/07 05:15:27;;;;;;;19.70;11.60;;;;;;;;;;5011087;28;20049;-60
2023/06/07 05:17:54;;;;;;;18.45;11.52;;;;;;;;;;5011545;28;20662;-60
2023/06/07 05:20:24;;;;;;;18.83;10.80;;;;;;;;;;5015356;28;20048;-59
2023/06/07 05:22:51;;;;;;;21.50;12.10;;;;;;;;;;5015977;28;20422;-59
2023/06/07 05:25:17;;;;;;;18.25;10.90;;;;;;;;;;5010494;28;20057;-59
2023/06/07 05:27:43;;;;;;;21.33;11.43;;;;;;;;;;5009738;28;20116;-59
2023/06/07 05:30:10;;;;;;;14.73;10.60;;;;;;;;;;5010802;28;20057;-59
2023/06/07 05:32:38;;;;;;;16.92;10.15;;;;;;;;;;5011427;28;20053;-59
2023/06/07 05:35:05;;;;;;;16.00;10.45;;;;;;;;;;5015704;28;20392;-60
2023/06/07 05:37:32;;;;;;;13.70;9.68;;;;;;;;;;5012583;28;20049;-60
2023/06/07 05:39:58;;;;;;;18.20;9.98;;;;;;;;;;5010337;28;20061;-60
2023/06/07 05:42:25;;;;;;;11.68;8.70;;;;;;;;;;5009561;28;20038;-60
2023/06/07 05:44:53;;;;;;;12.07;8.93;;;;;;;;;;4993756;28;20042;-60
2023/06/07 05:47:25;;;;;;;12.40;9.63;;;;;;;;;;5009571;28;20380;-60
2023/06/07 05:49:53;;;;;;;9.02;7.55;;;;;;;;;;5014031;28;20496;-61
2023/06/07 05:52:19;;;;;;;11.15;8.13;;;;;;;;;;5011721;28;20487;-60
2023/06/07 05:54:50;;;;;;;9.60;7.93;;;;;;;;;;5014987;28;20041;-61
2023/06/07 05:57:16;;;;;;;10.10;7.60;;;;;;;;;;5011673;28;20044;-60
2023/06/07 05:59:43;;;;;;;8.50;7.25;;;;;;;;;;5046059;28;20673;-60
2023/06/07 06:02:09;;;;;;;10.27;7.15;;;;;;;;;;5012135;28;20065;-60
2023/06/07 06:04:35;;;;;;;9.15;7.22;;;;;;;;;;5016177;28;20060;-61
2023/06/07 06:07:03;;;;;;;9.27;7.40;;;;;;;;;;5010587;28;20029;-60
2023/06/07 06:09:29;;;;;;;8.90;7.22;;;;;;;;;;5019038;28;20629;-60
2023/06/07 06:11:56;;;;;;;10.63;7.20;;;;;;;;;;5021182;28;20029;-60
2023/06/07 06:14:25;;;;;;;8.80;6.93;;;;;;;;;;5012790;28;20037;-60
2023/06/07 06:16:51;;;;;;;8.73;7.53;;;;;;;;;;5011271;28;20050;-60
2023/06/07 06:19:17;;;;;;;10.15;6.90;;;;;;;;;;5003569;28;20045;-60
2023/06/07 06:21:43;;;;;;;7.72;6.57;;;;;;;;;;5010462;28;20034;-59
2023/06/07 06:24:09;;;;;;;7.40;6.57;;;;;;;;;;5011423;28;20665;-60
2023/06/07 06:26:36;;;;;;;7.30;6.47;;;;;;;;;;5014482;28;20511;-60
2023/06/07 06:29:02;;;;;;;7.85;6.80;;;;;;;;;;5013632;28;20058;-60
2023/06/07 06:31:28;;;;;;;7.53;6.55;;;;;;;;;;5014014;28;20078;-61
2023/06/07 06:33:54;;;;;;;8.02;6.93;;;;;;;;;;5014997;28;20048;-60
2023/06/07 06:36:20;;;;;;;8.85;6.30;;;;;;;;;;5015200;28;20033;-60
2023/06/07 06:38:47;;;;;;;7.75;6.57;;;;;;;;;;5011711;28;20045;-60
2023/06/07 06:41:13;;;;;;;6.78;6.05;;;;;;;;;;5007683;28;20041;-59
2023/06/07 06:43:39;;;;;;;8.35;6.10;;;;;;;;;;5010896;28;20049;-59
2023/06/07 06:46:05;;;;;;;7.68;6.88;;;;;;;;;;5008649;28;20026;-59
2023/06/07 06:48:32;;;;;;;7.18;6.32;;;;;;;;;;5012589;28;20044;-60
2023/06/07 06:50:58;;;;;;;8.68;6.47;;;;;;;;;;5010761;28;20045;-60
2023/06/07 06:53:24;;;;;;;7.68;6.82;;;;;;;;;;5009622;28;20045;-59
2023/06/07 06:55:50;;;;;;;6.57;5.95;;;;;;;;;;5009455;28;20034;-59
2023/06/07 06:58:16;;;;;;;7.30;6.32;;;;;;;;;;5012922;28;20037;-59
2023/06/07 07:00:42;;;;;;;7.55;6.53;;;;;;;;;;5013996;28;20038;-59
2023/06/07 07:03:08;;;;;;;8.02;6.30;;;;;;;;;;5013174;28;20041;-60
2023/06/07 07:05:35;;;;;;;11.50;6.35;;;;;;;;;;5016513;28;20046;-60
2023/06/07 07:08:03;;;;;;;9.63;7.63;;;;;;;;;;5009666;28;20419;-60
2023/06/07 07:10:29;;;;;;;11.80;7.70;;;;;;;;;;5011829;28;20052;-60
2023/06/07 07:12:55;;;;;;;9.23;6.70;;;;;;;;;;5010419;28;20854;-60
2023/06/07 07:15:21;;;;;;;8.38;6.35;;;;;;;;;;5014069;28;20045;-60
2023/06/07 07:17:48;;;;;;;8.15;6.45;;;;;;;;;;5010492;28;20033;-60
2023/06/07 07:20:16;;;;;;;7.55;6.70;;;;;;;;;;5014389;28;20046;-60
2023/06/07 07:22:44;;;;;;;7.60;6.78;;;;;;;;;;5015200;28;20407;-60
2023/06/07 07:25:11;;;;;;;7.75;6.13;;;;;;;;;;5017393;28;20057;-60
2023/06/07 07:27:37;;;;;;;8.27;5.93;;;;;;;;;;5009571;28;20519;-60
2023/06/07 07:30:04;;;;;;;8.15;6.38;;;;;;;;;;5013725;28;20033;-60
2023/06/07 07:32:32;;;;;;;8.50;6.45;;;;;;;;;;5014991;28;20046;-60
2023/06/07 07:34:58;;;;;;;11.15;6.10;;;;;;;;;;5010293;28;20045;-61
2023/06/07 07:37:25;;;;;;;7.07;6.38;;;;;;;;;;5008378;28;21417;-59
2023/06/07 07:39:51;;;;;;;8.32;6.57;;;;;;;;;;5011309;28;20495;-59
2023/06/07 07:42:17;;;;;;;8.25;6.40;;;;;;;;;;5010385;28;20038;-60
2023/06/07 07:44:43;;;;;;;7.30;6.60;;;;;;;;;;5041034;28;20030;-60
2023/06/07 07:47:10;;;;;;;6.65;5.70;;;;;;;;;;5008519;28;20029;-61
2023/06/07 07:49:36;;;;;;;7.20;5.90;;;;;;;;;;5013557;28;20034;-60
2023/06/07 07:52:03;;;;;;;7.45;6.38;;;;;;;;;;5018322;28;20049;-61
2023/06/07 07:54:29;;;;;;;6.80;6.10;;;;;;;;;;5013673;28;20053;-61
2023/06/07 07:56:56;;;;;;;6.80;6.10;;;;;;;;;;5013222;28;20049;-60
2023/06/07 07:59:22;;;;;;;9.10;6.30;;;;;;;;;;5010699;28;20045;-61
2023/06/07 08:01:49;;;;;;;7.20;5.88;;;;;;;;;;5009802;28;20407;-60
2023/06/07 08:04:15;;;;;;;8.02;6.30;;;;;;;;;;5013693;28;20041;-60
2023/06/07 08:06:42;;;;;;;7.13;5.90;;;;;;;;;;5016206;28;20042;-60
2023/06/07 08:09:12;;;;;;;8.07;6.13;;;;;;;;;;5038298;28;20049;-60
2023/06/07 08:11:38;;;;;;;;;;;;;;;;;;5015774;28;20037;-60
2023/06/07 08:14:04;;;;;;;9.10;5.72;;;;;;;;;;5008374;28;19914;-60
2023/06/07 08:16:30;;;;;;;6.45;5.45;;;;;;;;;;5017151;28;20048;-61
2023/06/07 08:18:57;;;;;;;6.47;5.57;;;;;;;;;;5002822;28;20050;-59
2023/06/07 08:21:25;;;;;;;9.35;5.20;;;;;;;;;;5008553;28;20050;-59
2023/06/07 08:23:55;;;;;;;8.57;5.63;;;;;;;;;;5010455;28;20049;-60
2023/06/07 08:26:22;;;;;;;6.80;5.82;;;;;;;;;;5019717;28;20033;-60
2023/06/07 08:28:48;;;;;;;6.18;5.47;;;;;;;;;;5013405;28;20054;-60
2023/06/07 08:31:14;;;;;;;7.47;5.38;;;;;;;;;;5011761;28;20041;-61
2023/06/07 08:33:40;;;;;;;8.90;5.03;;;;;;;;;;5008452;28;20033;-60
2023/06/07 08:36:06;;;;;;;7.18;5.20;;;;;;;;;;5009022;28;20487;-60
2023/06/07 08:38:33;;;;;;;6.05;5.40;;;;;;;;;;5009848;28;20415;-60
2023/06/07 08:40:59;;;;;;;5.57;4.68;;;;;;;;;;5009439;28;20049;-61
2023/06/07 08:43:28;;;;;;;6.13;4.40;;;;;;;;;;5007750;28;20034;-61
2023/06/07 08:45:55;;;;;;;7.97;5.13;;;;;;;;;;5007656;28;20037;-60
2023/06/07 08:48:23;;;;;;;7.38;5.38;;;;;;;;;;5011407;28;20038;-62
2023/06/07 08:50:53;;;;;;;5.75;5.10;;;;;;;;;;5012658;28;20388;-60
2023/06/07 08:53:26;;;;;;;7.40;5.45;;;;;;;;;;5013780;28;20034;-60
2023/06/07 08:55:54;;;;;;;6.40;4.82;;;;;;;;;;5007335;28;20042;-60
2023/06/07 08:58:24;;;;;;;5.18;4.68;;;;;;;;;;5004138;28;20061;-60
2023/06/07 09:00:53;;;;;;;6.15;4.65;;;;;;;;;;5013486;28;20684;-60
2023/06/07 09:03:19;;;;;;;9.27;5.67;;;;;;;;;;5017138;28;20033;-60
2023/06/07 09:05:46;;;;;;;6.75;4.90;;;;;;;;;;5008278;28;20045;-60
2023/06/07 09:08:12;;;;;;;7.10;4.82;;;;;;;;;;5008143;28;20507;-60
2023/06/07 09:10:41;;;;;;;7.72;5.38;;;;;;;;;;5012177;28;20044;-60
2023/06/07 09:13:07;;;;;;;7.65;5.07;;;;;;;;;;5009355;28;20062;-60
2023/06/07 09:15:35;;;;;;;10.00;5.38;;;;;;;;;;5005536;28;20039;-61
2023/06/07 09:18:03;;;;;;;6.32;4.80;;;;;;;;;;5007838;28;20065;-61
2023/06/07 09:20:31;;;;;;;7.28;4.95;;;;;;;;;;5018269;28;20514;-60
2023/06/07 09:23:00;;;;;;;7.20;5.00;;;;;;;;;;5010732;28;20038;-61
2023/06/07 09:25:27;;;;;;;6.28;4.95;;;;;;;;;;5008087;28;20053;-61
2023/06/07 09:27:54;;;;;;;6.15;4.63;;;;;;;;;;5008521;28;20030;-60
2023/06/07 09:30:21;;;;;;;5.50;4.70;;;;;;;;;;5016428;28;20036;-60
2023/06/07 09:32:48;;;;;;;8.43;5.10;;;;;;;;;;5017633;28;20049;-61
2023/06/07 09:35:16;;;;;;;5.93;4.75;;;;;;;;;;5013654;28;20026;-61
2023/06/07 09:37:54;;;;;;;6.63;5.15;;;;;;;;;;5011260;28;20046;-60
2023/06/07 09:40:22;;;;;;;7.05;4.97;;;;;;;;;;5014551;28;20033;-61
2023/06/07 09:42:58;;;;;;;6.07;5.00;;;;;;;;;;5011996;28;20098;-61
2023/06/07 09:45:26;;;;;;;7.20;5.00;;;;;;;;;;5011478;28;20041;-61
2023/06/07 09:48:06;;;;;;;7.80;4.90;;;;;;;;;;5014997;28;20045;-62
2023/06/07 09:50:32;;;;;;;7.50;5.35;;;;;;;;;;5011435;28;20049;-61
2023/06/07 09:52:59;;;;;;;7.07;4.97;;;;;;;;;;5011535;28;20046;-62
2023/06/07 09:55:27;;;;;;;7.22;5.00;;;;;;;;;;5012697;28;20034;-62
2023/06/07 09:57:53;;;;;;;5.50;5.00;;;;;;;;;;5012933;28;20037;-62
2023/06/07 10:00:20;;;;;;;6.35;5.03;;;;;;;;;;5009717;28;20046;-62
2023/06/07 10:02:48;;;;;;;6.13;5.03;;;;;;;;;;5011553;28;20045;-62
2023/06/07 10:05:16;;;;;;;8.23;5.37;;;;;;;;;;5010984;28;20057;-62
2023/06/07 10:07:44;;;;;;;6.43;5.00;;;;;;;;;;5009156;28;20046;-62
2023/06/07 10:10:14;;;;;;;6.93;5.22;;;;;;;;;;5011635;28;20058;-62
2023/06/07 10:12:41;;;;;;;6.78;4.88;;;;;;;;;;5011915;28;20038;-63
2023/06/07 10:15:10;;;;;;;6.63;5.72;;;;;;;;;;5010991;28;20037;-63
2023/06/07 10:17:50;;;;;;;7.72;5.35;;;;;;;;;;5023300;28;20038;-62
2023/06/07 10:20:30;;;;;;;5.63;5.10;;;;;;;;;;5006942;28;20041;-62
2023/06/07 10:23:05;;;;;;;7.00;5.22;;;;;;;;;;5011610;28;20036;-62
2023/06/07 10:25:53;;;;;;;6.95;5.05;;;;;;;;;;5007307;28;20041;-62
2023/06/07 10:28:32;;;;;;;8.50;5.78;;;;;;;;;;5009229;28;20034;-62
2023/06/07 10:31:05;;;;;;;7.00;5.70;;;;;;;;;;5013338;28;20046;-62
2023/06/07 10:33:35;;;;;;;10.60;5.78;;;;;;;;;;5010423;28;20061;-62
2023/06/07 10:36:02;;;;;;;9.43;5.60;;;;;;;;;;5008984;28;20033;-62
2023/06/07 10:38:32;;;;;;;7.25;5.50;;;;;;;;;;5010412;28;20034;-62
2023/06/07 10:41:01;;;;;;;6.97;5.35;;;;;;;;;;5010128;28;20050;-62
2023/06/07 10:43:30;;;;;;;8.75;5.20;;;;;;;;;;5010146;28;20033;-62
2023/06/07 10:46:31;;;;;;;7.60;5.78;;;;;;;;;;5007587;28;20563;-62
2023/06/07 10:48:58;;;;;;;6.88;5.13;;;;;;;;;;5026940;28;20037;-63
2023/06/07 10:51:48;;;;;;;6.90;5.30;;;;;;;;;;5013539;28;20056;-62
2023/06/07 10:54:29;;;;;;;5.90;4.90;;;;;;;;;;5010232;28;20045;-63
2023/06/07 10:56:55;;;;;;;5.70;5.10;;;;;;;;;;5008038;28;20037;-63
2023/06/07 10:59:23;;;;;;;7.55;5.30;;;;;;;;;;5010484;28;20058;-63
2023/06/07 11:01:50;;;;;;;7.03;5.47;;;;;;;;;;5011689;28;20049;-63
2023/06/07 11:04:33;;;;;;;6.45;5.05;;;;;;;;;;5017614;28;20050;-65
2023/06/07 11:07:18;;;;;;;10.05;7.18;;;;;;;;;;5013662;28;20479;-65
2023/06/07 11:09:46;;;;;;;6.25;5.10;;;;;;;;;;5011127;28;20042;-66
2023/06/07 11:12:40;;;;;;;;;;;;;;;;;;;;;
2023/06/07 11:15:24;;;;;;;7.10;4.93;;;;;;;;;;5009240;28;20411;-65
2023/06/07 11:18:01;;;;;;;7.83;5.23;;;;;;;;;;5009697;28;20049;-65
2023/06/07 11:20:39;;;;;;;8.40;5.53;;;;;;;;;;5010081;28;20038;-65
2023/06/07 11:23:34;;;;;;;10.02;5.10;;;;;;;;;;5010432;28;20033;-64
2023/06/07 11:26:08;;;;;;;9.68;5.20;;;;;;;;;;5008812;28;20041;-62
2023/06/07 11:28:39;;;;;;;9.52;5.38;;;;;;;;;;5009643;28;20037;-63
2023/06/07 11:31:12;;;;;;;5.80;4.78;;;;;;;;;;5010260;28;20052;-62
2023/06/07 11:33:42;;;;;;;12.15;5.40;;;;;;;;;;5015592;28;20053;-61
2023/06/07 11:36:11;;;;;;;7.97;5.28;;;;;;;;;;5011366;28;20046;-61
2023/06/07 11:38:38;;;;;;;6.55;5.40;;;;;;;;;;5008856;28;20025;-65
2023/06/07 11:41:05;;;;;;;8.95;5.60;;;;;;;;;;5010960;28;20411;-62
2023/06/07 11:43:31;;;;;;;8.55;5.43;;;;;;;;;;5009562;28;20045;-62
2023/06/07 11:45:58;;;;;;;14.02;5.45;;;;;;;;;;5018760;28;20041;-62
2023/06/07 11:48:26;;;;;;;7.75;5.47;;;;;;;;;;5007393;28;20033;-62
2023/06/07 11:50:52;;;;;;;6.30;5.32;;;;;;;;;;5009568;28;20451;-62
2023/06/07 11:53:20;;;;;;;9.55;5.85;;;;;;;;;;5019664;28;20050;-63
2023/06/07 11:55:46;;;;;;;9.77;5.50;;;;;;;;;;5010662;28;20735;-62
2023/06/07 11:58:13;;;;;;;8.32;5.63;;;;;;;;;;5007074;28;20037;-62
2023/06/07 12:00:43;;;;;;;10.00;5.97;;;;;;;;;;5009320;28;20038;-62
2023/06/07 12:03:10;;;;;;;11.23;6.05;;;;;;;;;;5011201;28;20060;-62
2023/06/07 12:05:37;;;;;;;7.88;5.60;;;;;;;;;;5011395;28;20577;-63
2023/06/07 12:08:06;;;;;;;8.05;5.65;;;;;;;;;;5009914;28;20149;-62
2023/06/07 12:10:33;;;;;;;9.13;5.75;;;;;;;;;;5011518;28;20498;-62
2023/06/07 12:13:11;;;;;;;6.82;5.70;;;;;;;;;;5012622;28;20045;-62
2023/06/07 12:15:46;;;;;;;9.88;5.88;;;;;;;;;;5010137;28;20051;-62
2023/06/07 12:18:17;;;;;;;7.18;5.95;;;;;;;;;;5021098;28;20389;-62
2023/06/07 12:20:45;;;;;;;8.20;5.97;;;;;;;;;;5012488;28;22257;-61
2023/06/07 12:23:12;;;;;;;11.15;6.35;;;;;;;;;;5008026;28;20053;-62
2023/06/07 12:25:40;;;;;;;8.23;5.60;;;;;;;;;;5013384;28;20038;-61
2023/06/07 12:28:07;;;;;;;8.07;5.70;;;;;;;;;;5009499;28;20045;-63
2023/06/07 12:30:34;;;;;;;9.23;6.00;;;;;;;;;;5008034;28;20044;-64
2023/06/07 12:33:00;;;;;;;9.55;5.80;;;;;;;;;;5011107;28;20056;-63
2023/06/07 12:35:39;;;;;;;8.07;6.20;;;;;;;;;;5014246;28;20503;-62
2023/06/07 12:38:10;;;;;;;7.85;5.47;;;;;;;;;;5009588;28;20395;-64
2023/06/07 12:40:37;;;;;;;6.75;5.68;;;;;;;;;;5038263;28;20408;-62
2023/06/07 12:43:03;;;;;;;7.13;5.63;;;;;;;;;;5007246;28;20050;-63
2023/06/07 12:45:29;;;;;;;6.55;5.30;;;;;;;;;;5008010;28;20053;-65
2023/06/07 12:47:55;;;;;;;10.93;6.13;;;;;;;;;;4991245;28;20030;-64
2023/06/07 12:50:22;;;;;;;8.40;5.88;;;;;;;;;;5009788;28;20504;-63
2023/06/07 12:52:49;;;;;;;9.52;5.80;;;;;;;;;;5014158;28;20037;-65
2023/06/07 12:55:15;;;;;;;10.52;5.93;;;;;;;;;;5014409;28;20033;-62
2023/06/07 12:57:42;;;;;;;7.70;6.00;;;;;;;;;;4997595;28;20662;-65
2023/06/07 13:00:08;;;;;;;10.85;6.03;;;;;;;;;;5010169;28;20034;-63
2023/06/07 13:02:34;;;;;;;10.40;5.90;;;;;;;;;;5020156;28;20507;-65
2023/06/07 13:05:01;;;;;;;7.40;5.90;;;;;;;;;;5022697;28;20525;-63
2023/06/07 13:07:27;;;;;;;7.55;5.95;;;;;;;;;;5044605;28;20049;-64
2023/06/07 13:09:53;;;;;;;8.50;5.85;;;;;;;;;;5012160;28;20061;-63
2023/06/07 13:12:20;;;;;;;8.13;6.25;;;;;;;;;;5010297;28;20045;-63
2023/06/07 13:14:46;;;;;;;8.60;5.68;;;;;;;;;;5009743;28;20033;-62
2023/06/07 13:17:12;;;;;;;7.93;6.18;;;;;;;;;;5011976;28;20054;-63
2023/06/07 13:19:39;;;;;;;8.02;5.57;;;;;;;;;;5014838;28;20080;-61
2023/06/07 13:22:05;;;;;;;9.45;5.90;;;;;;;;;;5012130;28;20041;-62
2023/06/07 13:24:32;;;;;;;11.07;5.95;;;;;;;;;;5011175;28;20053;-62
2023/06/07 13:26:58;;;;;;;8.50;5.60;;;;;;;;;;4995064;28;20117;-63
2023/06/07 13:29:25;;;;;;;11.60;5.50;;;;;;;;;;5010707;28;20368;-63
2023/06/07 13:31:51;;;;;;;6.70;5.55;;;;;;;;;;5013086;28;20138;-62
2023/06/07 13:34:17;;;;;;;8.13;6.13;;;;;;;;;;5017696;28;20040;-62
2023/06/07 13:36:43;;;;;;;7.57;5.75;;;;;;;;;;5053768;28;20025;-63
2023/06/07 13:39:10;;;;;;;9.40;5.95;;;;;;;;;;5014057;28;20038;-63
2023/06/07 13:41:39;;;;;;;8.52;5.72;;;;;;;;;;5022971;28;20037;-64
2023/06/07 13:44:07;;;;;;;8.95;6.00;;;;;;;;;;5013740;28;20403;-65
2023/06/07 13:46:33;;;;;;;10.53;5.87;;;;;;;;;;5012707;28;20045;-63
2023/06/07 13:48:59;;;;;;;8.45;5.63;;;;;;;;;;5014777;28;20040;-63
2023/06/07 13:51:25;;;;;;;11.48;6.70;;;;;;;;;;5012863;28;20061;-64
2023/06/07 13:53:52;;;;;;;9.23;6.50;;;;;;;;;;5020993;28;20045;-65
2023/06/07 13:56:18;;;;;;;12.75;5.72;;;;;;;;;;5018390;28;20053;-63
2023/06/07 13:58:45;;;;;;;14.18;6.57;;;;;;;;;;5015566;28;20057;-64
2023/06/07 14:01:13;;;;;;;7.68;5.47;;;;;;;;;;5002918;28;20558;-64
2023/06/07 14:03:40;;;;;;;10.07;6.22;;;;;;;;;;5011396;28;20041;-64
2023/06/07 14:06:07;;;;;;;8.07;5.40;;;;;;;;;;5026698;28;20614;-66
2023/06/07 14:08:33;;;;;;;8.43;5.43;;;;;;;;;;5022427;28;20447;-66
2023/06/07 14:11:00;;;;;;;9.50;5.55;;;;;;;;;;5024474;28;20049;-64
2023/06/07 14:13:26;;;;;;;10.55;5.82;;;;;;;;;;5023623;28;20052;-64
2023/06/07 14:15:52;;;;;;;9.57;5.40;;;;;;;;;;5018494;28;20041;-62
2023/06/07 14:18:19;;;;;;;8.63;6.28;;;;;;;;;;5024278;28;20029;-65
2023/06/07 14:20:45;;;;;;;7.50;5.63;;;;;;;;;;5023664;28;20407;-63
2023/06/07 14:23:11;;;;;;;7.78;5.47;;;;;;;;;;5019550;28;20143;-64
2023/06/07 14:25:37;;;;;;;7.38;5.22;;;;;;;;;;5025235;28;20052;-65
2023/06/07 14:28:03;;;;;;;8.55;5.38;;;;;;;;;;5025091;28;20046;-64
2023/06/07 14:30:30;;;;;;;9.13;6.43;;;;;;;;;;5017236;28;20424;-63
2023/06/07 14:32:56;;;;;;;9.45;5.45;;;;;;;;;;5024142;28;20067;-63
2023/06/07 14:35:22;;;;;;;8.77;5.78;;;;;;;;;;5024702;28;20068;-63
2023/06/07 14:37:48;;;;;;;7.60;5.03;;;;;;;;;;5019963;28;20033;-62
2023/06/07 14:40:15;;;;;;;12.48;5.30;;;;;;;;;;5021698;28;20407;-62
2023/06/07 14:42:41;;;;;;;8.85;5.13;;;;;;;;;;5020897;28;20037;-63